sensor_id;sensor_type;location;lat;lon;timestamp;temperature;humidity
54168;DHT22;68429;50.958;3.592;2023-05-07T00:02:06;16.70;99.90
54168;DHT22;68429;50.958;3.592;2023-05-07T00:04:32;16.60;99.90
54168;DHT22;68429;50.958;3.592;2023-05-07T00:07:02;16.80;99.90
54168;DHT22;68429;50.958;3.592;2023-05-07T00:09:28;16.80;99.90
54168;DHT22;68429;50.958;3.592;2023-05-07T00:11:53;16.70;99.90
54168;DHT22;68429;50.958;3.592;2023-05-07T00:14:19;16.70;99.90
54168;DHT22;68429;50.958;3.592;2023-05-07T00:16:46;16.70;99.90
54168;DHT22;68429;50.958;3.592;2023-05-07T00:19:12;16.60;99.90
54168;DHT22;68429;50.958;3.592;2023-05-07T00:21:37;16.50;99.90
54168;DHT22;68429;50.958;3.592;2023-05-07T00:24:03;16.50;99.90
54168;DHT22;68429;50.958;3.592;2023-05-07T00:26:29;16.50;99.90
54168;DHT22;68429;50.958;3.592;2023-05-07T00:28:55;16.50;99.90
54168;DHT22;68429;50.958;3.592;2023-05-07T00:31:20;16.50;99.90
54168;DHT22;68429;50.958;3.592;2023-05-07T00:33:46;16.50;99.90
54168;DHT22;68429;50.958;3.592;2023-05-07T00:36:12;16.60;99.90
54168;DHT22;68429;50.958;3.592;2023-05-07T00:38:37;16.60;99.90
54168;DHT22;68429;50.958;3.592;2023-05-07T00:41:03;16.60;99.90
54168;DHT22;68429;50.958;3.592;2023-05-07T00:43:29;16.60;99.90
54168;DHT22;68429;50.958;3.592;2023-05-07T00:45:55;16.40;99.90
54168;DHT22;68429;50.958;3.592;2023-05-07T00:48:21;16.30;99.90
54168;DHT22;68429;50.958;3.592;2023-05-07T00:50:47;16.40;99.90
54168;DHT22;68429;50.958;3.592;2023-05-07T00:53:14;16.40;99.90
54168;DHT22;68429;50.958;3.592;2023-05-07T00:55:39;16.20;99.90
54168;DHT22;68429;50.958;3.592;2023-05-07T00:58:06;16.20;99.90
54168;DHT22;68429;50.958;3.592;2023-05-07T01:00:31;16.10;99.90
54168;DHT22;68429;50.958;3.592;2023-05-07T01:02:58;16.10;99.90
54168;DHT22;68429;50.958;3.592;2023-05-07T01:05:24;16.00;99.90
54168;DHT22;68429;50.958;3.592;2023-05-07T01:07:52;16.00;99.90
54168;DHT22;68429;50.958;3.592;2023-05-07T01:10:19;15.90;99.90
54168;DHT22;68429;50.958;3.592;2023-05-07T01:12:45;15.90;99.90
54168;DHT22;68429;50.958;3.592;2023-05-07T01:15:13;15.80;99.90
54168;DHT22;68429;50.958;3.592;2023-05-07T01:17:40;15.60;99.90
54168;DHT22;68429;50.958;3.592;2023-05-07T01:20:07;15.70;99.90
54168;DHT22;68429;50.958;3.592;2023-05-07T01:22:34;15.70;99.90
54168;DHT22;68429;50.958;3.592;2023-05-07T01:25:02;15.70;99.90
54168;DHT22;68429;50.958;3.592;2023-05-07T01:27:28;15.70;99.90
54168;DHT22;68429;50.958;3.592;2023-05-07T01:29:54;15.70;99.90
54168;DHT22;68429;50.958;3.592;2023-05-07T01:32:27;15.70;99.90
54168;DHT22;68429;50.958;3.592;2023-05-07T01:34:55;15.70;99.90
54168;DHT22;68429;50.958;3.592;2023-05-07T01:37:21;15.70;99.90
54168;DHT22;68429;50.958;3.592;2023-05-07T01:39:47;15.60;99.90
54168;DHT22;68429;50.958;3.592;2023-05-07T01:42:13;15.30;99.90
54168;DHT22;68429;50.958;3.592;2023-05-07T01:44:39;15.20;99.90
54168;DHT22;68429;50.958;3.592;2023-05-07T01:47:06;15.10;99.90
54168;DHT22;68429;50.958;3.592;2023-05-07T01:49:31;14.80;99.90
54168;DHT22;68429;50.958;3.592;2023-05-07T01:51:58;14.70;99.90
54168;DHT22;68429;50.958;3.592;2023-05-07T01:54:27;14.70;99.90
54168;DHT22;68429;50.958;3.592;2023-05-07T01:56:54;14.70;99.90
54168;DHT22;68429;50.958;3.592;2023-05-07T01:59:20;14.60;99.90
54168;DHT22;68429;50.958;3.592;2023-05-07T02:01:46;14.70;99.90
54168;DHT22;68429;50.958;3.592;2023-05-07T02:04:12;14.70;99.90
54168;DHT22;68429;50.958;3.592;2023-05-07T02:06:38;14.70;99.90
54168;DHT22;68429;50.958;3.592;2023-05-07T02:09:04;14.80;99.90
54168;DHT22;68429;50.958;3.592;2023-05-07T02:11:30;14.90;99.90
54168;DHT22;68429;50.958;3.592;2023-05-07T02:13:56;15.00;99.90
54168;DHT22;68429;50.958;3.592;2023-05-07T02:16:21;15.10;99.90
54168;DHT22;68429;50.958;3.592;2023-05-07T02:18:48;15.10;99.90
54168;DHT22;68429;50.958;3.592;2023-05-07T02:21:14;15.10;99.90
54168;DHT22;68429;50.958;3.592;2023-05-07T02:23:40;15.10;99.90
54168;DHT22;68429;50.958;3.592;2023-05-07T02:26:05;15.20;99.90
54168;DHT22;68429;50.958;3.592;2023-05-07T02:28:31;15.10;99.90
54168;DHT22;68429;50.958;3.592;2023-05-07T02:30:57;15.10;99.90
54168;DHT22;68429;50.958;3.592;2023-05-07T02:33:25;15.20;99.90
54168;DHT22;68429;50.958;3.592;2023-05-07T02:35:50;15.20;99.90
54168;DHT22;68429;50.958;3.592;2023-05-07T02:38:17;15.20;99.90
54168;DHT22;68429;50.958;3.592;2023-05-07T02:40:43;15.10;99.90
54168;DHT22;68429;50.958;3.592;2023-05-07T02:43:09;15.00;99.90
54168;DHT22;68429;50.958;3.592;2023-05-07T02:45:34;14.80;99.90
54168;DHT22;68429;50.958;3.592;2023-05-07T02:48:01;14.80;99.90
54168;DHT22;68429;50.958;3.592;2023-05-07T02:50:27;14.70;99.90
54168;DHT22;68429;50.958;3.592;2023-05-07T02:52:52;14.70;99.90
54168;DHT22;68429;50.958;3.592;2023-05-07T02:55:18;14.60;99.90
54168;DHT22;68429;50.958;3.592;2023-05-07T02:57:44;14.50;99.90
54168;DHT22;68429;50.958;3.592;2023-05-07T03:00:14;14.50;99.90
54168;DHT22;68429;50.958;3.592;2023-05-07T03:02:41;14.90;99.90
54168;DHT22;68429;50.958;3.592;2023-05-07T03:05:06;15.00;99.90
54168;DHT22;68429;50.958;3.592;2023-05-07T03:07:32;15.00;99.90
54168;DHT22;68429;50.958;3.592;2023-05-07T03:09:58;14.90;99.90
54168;DHT22;68429;50.958;3.592;2023-05-07T03:12:24;15.00;99.90
54168;DHT22;68429;50.958;3.592;2023-05-07T03:14:49;15.30;99.90
54168;DHT22;68429;50.958;3.592;2023-05-07T03:17:15;15.20;99.90
54168;DHT22;68429;50.958;3.592;2023-05-07T03:19:41;15.20;99.90
54168;DHT22;68429;50.958;3.592;2023-05-07T03:22:07;15.30;99.90
54168;DHT22;68429;50.958;3.592;2023-05-07T03:24:33;15.40;99.90
54168;DHT22;68429;50.958;3.592;2023-05-07T03:26:58;15.50;99.90
54168;DHT22;68429;50.958;3.592;2023-05-07T03:29:24;15.50;99.90
54168;DHT22;68429;50.958;3.592;2023-05-07T03:31:49;15.60;99.90
54168;DHT22;68429;50.958;3.592;2023-05-07T03:34:15;15.60;99.90
54168;DHT22;68429;50.958;3.592;2023-05-07T03:36:42;15.60;99.90
54168;DHT22;68429;50.958;3.592;2023-05-07T03:39:08;15.60;99.90
54168;DHT22;68429;50.958;3.592;2023-05-07T03:41:34;15.60;99.90
54168;DHT22;68429;50.958;3.592;2023-05-07T03:43:59;15.60;99.90
54168;DHT22;68429;50.958;3.592;2023-05-07T03:46:25;15.70;99.90
54168;DHT22;68429;50.958;3.592;2023-05-07T03:48:51;15.70;99.90
54168;DHT22;68429;50.958;3.592;2023-05-07T03:51:17;15.70;99.90
54168;DHT22;68429;50.958;3.592;2023-05-07T03:53:43;15.80;99.90
54168;DHT22;68429;50.958;3.592;2023-05-07T03:56:08;15.80;99.90
54168;DHT22;68429;50.958;3.592;2023-05-07T03:58:34;15.90;99.90
54168;DHT22;68429;50.958;3.592;2023-05-07T04:01:00;15.90;99.90
54168;DHT22;68429;50.958;3.592;2023-05-07T04:03:26;15.90;99.90
54168;DHT22;68429;50.958;3.592;2023-05-07T04:05:52;16.00;99.90
54168;DHT22;68429;50.958;3.592;2023-05-07T04:08:17;16.00;99.90
54168;DHT22;68429;50.958;3.592;2023-05-07T04:10:43;16.00;99.90
54168;DHT22;68429;50.958;3.592;2023-05-07T04:13:09;16.00;99.90
54168;DHT22;68429;50.958;3.592;2023-05-07T04:15:35;16.00;99.90
54168;DHT22;68429;50.958;3.592;2023-05-07T04:18:01;16.00;99.90
54168;DHT22;68429;50.958;3.592;2023-05-07T04:20:27;16.10;99.90
54168;DHT22;68429;50.958;3.592;2023-05-07T04:22:52;16.00;99.90
54168;DHT22;68429;50.958;3.592;2023-05-07T04:25:18;16.10;99.90
54168;DHT22;68429;50.958;3.592;2023-05-07T04:27:44;16.10;99.90
54168;DHT22;68429;50.958;3.592;2023-05-07T04:30:10;16.20;99.90
54168;DHT22;68429;50.958;3.592;2023-05-07T04:32:35;16.10;99.90
54168;DHT22;68429;50.958;3.592;2023-05-07T04:35:02;16.00;99.90
54168;DHT22;68429;50.958;3.592;2023-05-07T04:37:28;16.10;99.90
54168;DHT22;68429;50.958;3.592;2023-05-07T04:39:54;16.20;99.90
54168;DHT22;68429;50.958;3.592;2023-05-07T04:42:19;16.00;99.90
54168;DHT22;68429;50.958;3.592;2023-05-07T04:44:45;15.80;99.90
54168;DHT22;68429;50.958;3.592;2023-05-07T04:47:11;15.60;99.90
54168;DHT22;68429;50.958;3.592;2023-05-07T04:49:38;15.70;99.90
54168;DHT22;68429;50.958;3.592;2023-05-07T04:52:04;15.70;99.90
54168;DHT22;68429;50.958;3.592;2023-05-07T04:54:30;15.70;99.90
54168;DHT22;68429;50.958;3.592;2023-05-07T04:56:56;15.80;99.90
54168;DHT22;68429;50.958;3.592;2023-05-07T04:59:21;15.80;99.90
54168;DHT22;68429;50.958;3.592;2023-05-07T05:01:47;15.80;99.90
54168;DHT22;68429;50.958;3.592;2023-05-07T05:04:13;15.70;99.90
54168;DHT22;68429;50.958;3.592;2023-05-07T05:06:39;15.50;99.90
54168;DHT22;68429;50.958;3.592;2023-05-07T05:09:05;15.30;99.90
54168;DHT22;68429;50.958;3.592;2023-05-07T05:11:31;15.20;99.90
54168;DHT22;68429;50.958;3.592;2023-05-07T05:13:58;15.20;99.90
54168;DHT22;68429;50.958;3.592;2023-05-07T05:16:24;15.10;99.90
54168;DHT22;68429;50.958;3.592;2023-05-07T05:18:50;14.90;99.90
54168;DHT22;68429;50.958;3.592;2023-05-07T05:21:17;14.80;99.90
54168;DHT22;68429;50.958;3.592;2023-05-07T05:23:43;14.70;99.90
54168;DHT22;68429;50.958;3.592;2023-05-07T05:26:08;14.60;99.90
54168;DHT22;68429;50.958;3.592;2023-05-07T05:28:34;14.60;99.90
54168;DHT22;68429;50.958;3.592;2023-05-07T05:31:00;14.60;99.90
54168;DHT22;68429;50.958;3.592;2023-05-07T05:33:26;14.60;99.90
54168;DHT22;68429;50.958;3.592;2023-05-07T05:35:51;14.70;99.90
54168;DHT22;68429;50.958;3.592;2023-05-07T05:38:17;14.80;99.90
54168;DHT22;68429;50.958;3.592;2023-05-07T05:40:43;14.90;99.90
54168;DHT22;68429;50.958;3.592;2023-05-07T05:43:08;15.10;99.90
54168;DHT22;68429;50.958;3.592;2023-05-07T05:45:34;15.20;99.90
54168;DHT22;68429;50.958;3.592;2023-05-07T05:48:00;15.20;99.90
54168;DHT22;68429;50.958;3.592;2023-05-07T05:50:26;15.20;99.90
54168;DHT22;68429;50.958;3.592;2023-05-07T05:52:51;15.20;99.90
54168;DHT22;68429;50.958;3.592;2023-05-07T05:55:17;15.10;99.90
54168;DHT22;68429;50.958;3.592;2023-05-07T05:57:43;15.20;99.90
54168;DHT22;68429;50.958;3.592;2023-05-07T06:00:09;15.10;99.90
54168;DHT22;68429;50.958;3.592;2023-05-07T06:02:35;15.30;99.90
54168;DHT22;68429;50.958;3.592;2023-05-07T06:05:00;15.40;99.90
54168;DHT22;68429;50.958;3.592;2023-05-07T06:07:26;15.40;99.90
54168;DHT22;68429;50.958;3.592;2023-05-07T06:09:51;15.40;99.90
54168;DHT22;68429;50.958;3.592;2023-05-07T06:12:17;15.40;99.90
54168;DHT22;68429;50.958;3.592;2023-05-07T06:14:43;15.50;99.90
54168;DHT22;68429;50.958;3.592;2023-05-07T06:17:09;15.40;99.90
54168;DHT22;68429;50.958;3.592;2023-05-07T06:19:35;15.40;99.90
54168;DHT22;68429;50.958;3.592;2023-05-07T06:22:01;15.40;99.90
54168;DHT22;68429;50.958;3.592;2023-05-07T06:24:27;15.40;99.90
54168;DHT22;68429;50.958;3.592;2023-05-07T06:26:54;15.40;99.90
54168;DHT22;68429;50.958;3.592;2023-05-07T06:29:20;15.40;99.90
54168;DHT22;68429;50.958;3.592;2023-05-07T06:31:45;15.50;99.90
54168;DHT22;68429;50.958;3.592;2023-05-07T06:34:11;15.50;99.90
54168;DHT22;68429;50.958;3.592;2023-05-07T06:36:40;15.50;99.90
54168;DHT22;68429;50.958;3.592;2023-05-07T06:39:06;15.50;99.90
54168;DHT22;68429;50.958;3.592;2023-05-07T06:41:32;15.50;99.90
54168;DHT22;68429;50.958;3.592;2023-05-07T06:43:57;15.50;99.90
54168;DHT22;68429;50.958;3.592;2023-05-07T06:46:23;15.60;99.90
54168;DHT22;68429;50.958;3.592;2023-05-07T06:48:49;15.60;99.90
54168;DHT22;68429;50.958;3.592;2023-05-07T06:51:14;15.70;99.90
54168;DHT22;68429;50.958;3.592;2023-05-07T06:53:40;15.70;99.90
54168;DHT22;68429;50.958;3.592;2023-05-07T06:56:06;15.70;99.90
54168;DHT22;68429;50.958;3.592;2023-05-07T06:58:32;15.70;99.90
54168;DHT22;68429;50.958;3.592;2023-05-07T07:00:58;15.60;99.90
54168;DHT22;68429;50.958;3.592;2023-05-07T07:03:23;15.60;99.90
54168;DHT22;68429;50.958;3.592;2023-05-07T07:05:53;15.70;99.90
54168;DHT22;68429;50.958;3.592;2023-05-07T07:08:19;15.70;99.90
54168;DHT22;68429;50.958;3.592;2023-05-07T07:10:46;15.80;99.90
54168;DHT22;68429;50.958;3.592;2023-05-07T07:13:13;15.60;99.90
54168;DHT22;68429;50.958;3.592;2023-05-07T07:15:38;15.70;99.90
54168;DHT22;68429;50.958;3.592;2023-05-07T07:18:05;15.70;99.90
54168;DHT22;68429;50.958;3.592;2023-05-07T07:20:31;15.70;99.90
54168;DHT22;68429;50.958;3.592;2023-05-07T07:22:57;15.70;99.90
54168;DHT22;68429;50.958;3.592;2023-05-07T07:25:22;15.80;99.90
54168;DHT22;68429;50.958;3.592;2023-05-07T07:27:49;15.80;99.90
54168;DHT22;68429;50.958;3.592;2023-05-07T07:30:15;15.80;99.90
54168;DHT22;68429;50.958;3.592;2023-05-07T07:32:40;15.80;99.90
54168;DHT22;68429;50.958;3.592;2023-05-07T07:35:06;15.80;99.90
54168;DHT22;68429;50.958;3.592;2023-05-07T07:37:32;15.90;99.90
54168;DHT22;68429;50.958;3.592;2023-05-07T07:39:58;15.90;99.90
54168;DHT22;68429;50.958;3.592;2023-05-07T07:42:23;15.90;99.90
54168;DHT22;68429;50.958;3.592;2023-05-07T07:44:49;16.00;99.90
54168;DHT22;68429;50.958;3.592;2023-05-07T07:47:15;16.00;99.90
54168;DHT22;68429;50.958;3.592;2023-05-07T07:49:41;16.00;99.90
54168;DHT22;68429;50.958;3.592;2023-05-07T07:52:06;16.10;99.90
54168;DHT22;68429;50.958;3.592;2023-05-07T07:54:32;16.10;99.90
54168;DHT22;68429;50.958;3.592;2023-05-07T07:56:58;16.10;99.90
54168;DHT22;68429;50.958;3.592;2023-05-07T07:59:24;16.00;99.90
54168;DHT22;68429;50.958;3.592;2023-05-07T08:01:49;16.10;99.90
54168;DHT22;68429;50.958;3.592;2023-05-07T08:04:17;16.20;99.90
54168;DHT22;68429;50.958;3.592;2023-05-07T08:06:43;16.10;99.90
54168;DHT22;68429;50.958;3.592;2023-05-07T08:09:08;16.20;99.90
54168;DHT22;68429;50.958;3.592;2023-05-07T08:11:34;16.30;99.90
54168;DHT22;68429;50.958;3.592;2023-05-07T08:14:00;16.20;99.90
54168;DHT22;68429;50.958;3.592;2023-05-07T08:16:26;16.30;99.90
54168;DHT22;68429;50.958;3.592;2023-05-07T08:18:52;16.40;99.90
54168;DHT22;68429;50.958;3.592;2023-05-07T08:21:18;16.30;99.90
54168;DHT22;68429;50.958;3.592;2023-05-07T08:23:43;16.50;99.90
54168;DHT22;68429;50.958;3.592;2023-05-07T08:26:10;16.50;99.90
54168;DHT22;68429;50.958;3.592;2023-05-07T08:28:35;16.60;99.90
54168;DHT22;68429;50.958;3.592;2023-05-07T08:31:01;16.40;99.90
54168;DHT22;68429;50.958;3.592;2023-05-07T08:33:27;16.50;99.90
54168;DHT22;68429;50.958;3.592;2023-05-07T08:35:53;16.70;99.90
54168;DHT22;68429;50.958;3.592;2023-05-07T08:38:19;16.70;99.90
54168;DHT22;68429;50.958;3.592;2023-05-07T08:40:45;16.90;99.90
54168;DHT22;68429;50.958;3.592;2023-05-07T08:43:15;17.00;99.90
54168;DHT22;68429;50.958;3.592;2023-05-07T08:45:43;17.00;99.90
54168;DHT22;68429;50.958;3.592;2023-05-07T08:48:22;17.20;99.90
54168;DHT22;68429;50.958;3.592;2023-05-07T08:50:50;17.10;99.90
54168;DHT22;68429;50.958;3.592;2023-05-07T08:53:17;17.10;99.90
54168;DHT22;68429;50.958;3.592;2023-05-07T08:55:43;16.90;99.90
54168;DHT22;68429;50.958;3.592;2023-05-07T08:58:08;17.10;99.90
54168;DHT22;68429;50.958;3.592;2023-05-07T09:00:36;17.30;99.90
54168;DHT22;68429;50.958;3.592;2023-05-07T09:03:02;17.40;99.90
54168;DHT22;68429;50.958;3.592;2023-05-07T09:05:28;17.50;99.90
54168;DHT22;68429;50.958;3.592;2023-05-07T09:07:53;17.40;99.90
54168;DHT22;68429;50.958;3.592;2023-05-07T09:10:21;17.30;99.90
54168;DHT22;68429;50.958;3.592;2023-05-07T09:12:47;17.40;99.90
54168;DHT22;68429;50.958;3.592;2023-05-07T09:15:13;17.40;99.90
54168;DHT22;68429;50.958;3.592;2023-05-07T09:17:39;17.70;99.90
54168;DHT22;68429;50.958;3.592;2023-05-07T09:20:08;17.70;99.90
54168;DHT22;68429;50.958;3.592;2023-05-07T09:22:36;18.10;99.90
54168;DHT22;68429;50.958;3.592;2023-05-07T09:25:02;18.10;99.90
54168;DHT22;68429;50.958;3.592;2023-05-07T09:27:27;18.10;99.90
54168;DHT22;68429;50.958;3.592;2023-05-07T09:29:53;18.30;99.90
54168;DHT22;68429;50.958;3.592;2023-05-07T09:32:19;18.40;99.90
54168;DHT22;68429;50.958;3.592;2023-05-07T09:34:44;18.50;99.90
54168;DHT22;68429;50.958;3.592;2023-05-07T09:37:12;18.40;99.90
54168;DHT22;68429;50.958;3.592;2023-05-07T09:39:46;18.50;99.90
54168;DHT22;68429;50.958;3.592;2023-05-07T09:42:12;18.60;99.90
54168;DHT22;68429;50.958;3.592;2023-05-07T09:44:41;18.50;99.90
54168;DHT22;68429;50.958;3.592;2023-05-07T09:47:08;18.50;99.90
54168;DHT22;68429;50.958;3.592;2023-05-07T09:49:37;18.50;99.90
54168;DHT22;68429;50.958;3.592;2023-05-07T09:52:04;18.60;99.90
54168;DHT22;68429;50.958;3.592;2023-05-07T09:54:40;19.00;99.90
54168;DHT22;68429;50.958;3.592;2023-05-07T09:57:10;19.30;99.90
54168;DHT22;68429;50.958;3.592;2023-05-07T09:59:37;19.50;99.90
54168;DHT22;68429;50.958;3.592;2023-05-07T10:02:04;19.60;99.90
54168;DHT22;68429;50.958;3.592;2023-05-07T10:04:31;19.50;99.90
54168;DHT22;68429;50.958;3.592;2023-05-07T10:06:57;19.70;99.90
54168;DHT22;68429;50.958;3.592;2023-05-07T10:09:25;19.80;99.90
54168;DHT22;68429;50.958;3.592;2023-05-07T10:11:51;19.80;99.90
54168;DHT22;68429;50.958;3.592;2023-05-07T10:14:17;20.30;99.90
54168;DHT22;68429;50.958;3.592;2023-05-07T10:16:44;20.10;99.90
54168;DHT22;68429;50.958;3.592;2023-05-07T10:19:12;20.50;99.90
54168;DHT22;68429;50.958;3.592;2023-05-07T10:21:54;20.40;99.90
54168;DHT22;68429;50.958;3.592;2023-05-07T10:24:25;20.70;99.90
54168;DHT22;68429;50.958;3.592;2023-05-07T10:26:53;20.30;99.90
54168;DHT22;68429;50.958;3.592;2023-05-07T10:34:50;20.10;99.90
54168;DHT22;68429;50.958;3.592;2023-05-07T10:37:19;20.00;99.90
54168;DHT22;68429;50.958;3.592;2023-05-07T10:39:45;20.10;99.90
54168;DHT22;68429;50.958;3.592;2023-05-07T10:42:12;20.00;99.90
54168;DHT22;68429;50.958;3.592;2023-05-07T10:44:38;19.90;99.90
54168;DHT22;68429;50.958;3.592;2023-05-07T10:47:12;19.60;99.90
54168;DHT22;68429;50.958;3.592;2023-05-07T10:52:21;19.50;99.90
54168;DHT22;68429;50.958;3.592;2023-05-07T10:57:40;19.60;99.90
54168;DHT22;68429;50.958;3.592;2023-05-07T11:05:25;19.90;99.90
54168;DHT22;68429;50.958;3.592;2023-05-07T11:07:58;19.80;99.90
54168;DHT22;68429;50.958;3.592;2023-05-07T11:10:56;19.50;99.90
54168;DHT22;68429;50.958;3.592;2023-05-07T11:13:43;19.80;99.90
54168;DHT22;68429;50.958;3.592;2023-05-07T11:16:23;19.80;99.90
54168;DHT22;68429;50.958;3.592;2023-05-07T11:18:51;20.10;99.90
54168;DHT22;68429;50.958;3.592;2023-05-07T11:24:03;20.90;99.90
54168;DHT22;68429;50.958;3.592;2023-05-07T11:26:43;21.00;99.90
54168;DHT22;68429;50.958;3.592;2023-05-07T11:29:16;21.40;99.90
54168;DHT22;68429;50.958;3.592;2023-05-07T11:31:42;21.30;99.90
54168;DHT22;68429;50.958;3.592;2023-05-07T11:34:08;21.20;99.90
54168;DHT22;68429;50.958;3.592;2023-05-07T11:36:36;21.10;99.90
54168;DHT22;68429;50.958;3.592;2023-05-07T11:39:06;21.30;99.90
54168;DHT22;68429;50.958;3.592;2023-05-07T11:41:48;21.20;99.90
54168;DHT22;68429;50.958;3.592;2023-05-07T11:44:13;21.60;99.90
54168;DHT22;68429;50.958;3.592;2023-05-07T11:46:43;21.80;99.90
54168;DHT22;68429;50.958;3.592;2023-05-07T11:49:10;22.00;99.90
54168;DHT22;68429;50.958;3.592;2023-05-07T11:51:36;22.00;99.90
54168;DHT22;68429;50.958;3.592;2023-05-07T11:54:03;21.90;99.90
54168;DHT22;68429;50.958;3.592;2023-05-07T11:56:34;21.90;99.90
54168;DHT22;68429;50.958;3.592;2023-05-07T11:59:00;22.10;99.90
54168;DHT22;68429;50.958;3.592;2023-05-07T12:01:26;22.00;99.90
54168;DHT22;68429;50.958;3.592;2023-05-07T12:03:52;22.00;99.90
54168;DHT22;68429;50.958;3.592;2023-05-07T12:06:18;21.90;99.90
54168;DHT22;68429;50.958;3.592;2023-05-07T12:08:45;21.70;99.90
54168;DHT22;68429;50.958;3.592;2023-05-07T12:11:15;21.90;99.90
54168;DHT22;68429;50.958;3.592;2023-05-07T12:13:42;22.10;99.90
54168;DHT22;68429;50.958;3.592;2023-05-07T12:16:09;22.30;99.90
54168;DHT22;68429;50.958;3.592;2023-05-07T12:18:36;22.30;99.90
54168;DHT22;68429;50.958;3.592;2023-05-07T12:21:03;22.10;99.90
54168;DHT22;68429;50.958;3.592;2023-05-07T12:23:29;22.20;99.90
54168;DHT22;68429;50.958;3.592;2023-05-07T12:25:55;22.10;99.90
54168;DHT22;68429;50.958;3.592;2023-05-07T12:28:21;22.00;99.90
54168;DHT22;68429;50.958;3.592;2023-05-07T12:30:48;21.80;99.90
54168;DHT22;68429;50.958;3.592;2023-05-07T12:33:18;22.10;99.90
54168;DHT22;68429;50.958;3.592;2023-05-07T12:35:44;22.10;99.90
54168;DHT22;68429;50.958;3.592;2023-05-07T12:38:11;21.70;99.90
54168;DHT22;68429;50.958;3.592;2023-05-07T12:40:45;22.30;99.90
54168;DHT22;68429;50.958;3.592;2023-05-07T12:43:20;21.80;99.90
54168;DHT22;68429;50.958;3.592;2023-05-07T12:45:50;21.80;99.90
54168;DHT22;68429;50.958;3.592;2023-05-07T12:48:16;21.40;99.90
54168;DHT22;68429;50.958;3.592;2023-05-07T12:50:42;21.90;99.90
54168;DHT22;68429;50.958;3.592;2023-05-07T12:53:11;22.10;99.90
54168;DHT22;68429;50.958;3.592;2023-05-07T12:55:42;22.40;99.90
54168;DHT22;68429;50.958;3.592;2023-05-07T12:58:08;22.80;99.90
54168;DHT22;68429;50.958;3.592;2023-05-07T13:00:39;23.30;99.90
54168;DHT22;68429;50.958;3.592;2023-05-07T13:03:05;23.80;99.90
54168;DHT22;68429;50.958;3.592;2023-05-07T13:05:31;23.70;99.90
54168;DHT22;68429;50.958;3.592;2023-05-07T13:07:58;23.30;99.90
54168;DHT22;68429;50.958;3.592;2023-05-07T13:10:24;23.60;99.90
54168;DHT22;68429;50.958;3.592;2023-05-07T13:12:50;23.90;99.90
54168;DHT22;68429;50.958;3.592;2023-05-07T13:15:16;23.70;99.90
54168;DHT22;68429;50.958;3.592;2023-05-07T13:17:42;22.90;99.90
54168;DHT22;68429;50.958;3.592;2023-05-07T13:20:11;23.10;99.90
54168;DHT22;68429;50.958;3.592;2023-05-07T13:22:39;23.00;99.90
54168;DHT22;68429;50.958;3.592;2023-05-07T13:25:05;23.30;99.90
54168;DHT22;68429;50.958;3.592;2023-05-07T13:27:31;23.30;99.90
54168;DHT22;68429;50.958;3.592;2023-05-07T13:29:57;23.60;99.90
54168;DHT22;68429;50.958;3.592;2023-05-07T13:32:22;24.20;99.90
54168;DHT22;68429;50.958;3.592;2023-05-07T13:34:48;23.30;99.90
54168;DHT22;68429;50.958;3.592;2023-05-07T13:37:14;23.20;99.90
54168;DHT22;68429;50.958;3.592;2023-05-07T13:39:39;23.00;99.90
54168;DHT22;68429;50.958;3.592;2023-05-07T13:42:06;22.90;99.90
54168;DHT22;68429;50.958;3.592;2023-05-07T13:44:32;22.50;99.90
54168;DHT22;68429;50.958;3.592;2023-05-07T13:46:58;23.00;99.90
54168;DHT22;68429;50.958;3.592;2023-05-07T13:49:24;22.80;99.90
54168;DHT22;68429;50.958;3.592;2023-05-07T13:51:49;22.30;99.90
54168;DHT22;68429;50.958;3.592;2023-05-07T13:54:15;21.80;99.90
54168;DHT22;68429;50.958;3.592;2023-05-07T13:56:41;21.90;99.90
54168;DHT22;68429;50.958;3.592;2023-05-07T13:59:07;21.80;99.90
54168;DHT22;68429;50.958;3.592;2023-05-07T14:01:33;22.00;99.90
54168;DHT22;68429;50.958;3.592;2023-05-07T14:03:58;22.30;99.90
54168;DHT22;68429;50.958;3.592;2023-05-07T14:06:24;22.30;99.90
54168;DHT22;68429;50.958;3.592;2023-05-07T14:08:50;22.10;99.90
54168;DHT22;68429;50.958;3.592;2023-05-07T14:11:16;21.50;99.90
54168;DHT22;68429;50.958;3.592;2023-05-07T14:13:41;21.20;99.90
54168;DHT22;68429;50.958;3.592;2023-05-07T14:16:07;21.20;99.90
54168;DHT22;68429;50.958;3.592;2023-05-07T14:18:33;20.90;99.90
54168;DHT22;68429;50.958;3.592;2023-05-07T14:20:59;20.70;99.90
54168;DHT22;68429;50.958;3.592;2023-05-07T14:23:25;20.80;99.90
54168;DHT22;68429;50.958;3.592;2023-05-07T14:25:52;20.90;99.90
54168;DHT22;68429;50.958;3.592;2023-05-07T14:28:18;20.90;99.90
54168;DHT22;68429;50.958;3.592;2023-05-07T14:30:44;21.00;99.90
54168;DHT22;68429;50.958;3.592;2023-05-07T14:33:10;21.00;99.90
54168;DHT22;68429;50.958;3.592;2023-05-07T14:35:35;20.80;99.90
54168;DHT22;68429;50.958;3.592;2023-05-07T14:38:01;20.60;99.90
54168;DHT22;68429;50.958;3.592;2023-05-07T14:40:27;20.60;99.90
54168;DHT22;68429;50.958;3.592;2023-05-07T14:42:52;20.70;99.90
54168;DHT22;68429;50.958;3.592;2023-05-07T14:45:18;20.60;99.90
54168;DHT22;68429;50.958;3.592;2023-05-07T14:47:43;20.60;99.90
54168;DHT22;68429;50.958;3.592;2023-05-07T14:50:09;20.50;99.90
54168;DHT22;68429;50.958;3.592;2023-05-07T14:52:35;20.40;99.90
54168;DHT22;68429;50.958;3.592;2023-05-07T14:55:01;20.30;99.90
54168;DHT22;68429;50.958;3.592;2023-05-07T14:57:26;20.00;99.90
54168;DHT22;68429;50.958;3.592;2023-05-07T14:59:52;19.90;99.90
54168;DHT22;68429;50.958;3.592;2023-05-07T15:02:18;19.90;99.90
54168;DHT22;68429;50.958;3.592;2023-05-07T15:04:43;19.90;99.90
54168;DHT22;68429;50.958;3.592;2023-05-07T15:07:12;19.80;99.90
54168;DHT22;68429;50.958;3.592;2023-05-07T15:09:41;19.70;99.90
54168;DHT22;68429;50.958;3.592;2023-05-07T15:12:07;19.40;99.90
54168;DHT22;68429;50.958;3.592;2023-05-07T15:14:33;19.40;99.90
54168;DHT22;68429;50.958;3.592;2023-05-07T15:16:58;19.30;99.90
54168;DHT22;68429;50.958;3.592;2023-05-07T15:19:24;19.50;99.90
54168;DHT22;68429;50.958;3.592;2023-05-07T15:21:57;19.40;99.90
54168;DHT22;68429;50.958;3.592;2023-05-07T15:24:23;18.90;99.90
54168;DHT22;68429;50.958;3.592;2023-05-07T15:26:51;18.70;99.90
54168;DHT22;68429;50.958;3.592;2023-05-07T15:29:17;18.90;99.90
54168;DHT22;68429;50.958;3.592;2023-05-07T15:31:42;19.10;99.90
54168;DHT22;68429;50.958;3.592;2023-05-07T15:34:08;19.60;99.90
54168;DHT22;68429;50.958;3.592;2023-05-07T15:36:34;20.00;99.90
54168;DHT22;68429;50.958;3.592;2023-05-07T15:39:00;19.70;99.90
54168;DHT22;68429;50.958;3.592;2023-05-07T15:41:27;19.70;99.90
54168;DHT22;68429;50.958;3.592;2023-05-07T15:43:53;19.70;99.90
54168;DHT22;68429;50.958;3.592;2023-05-07T15:46:20;20.00;99.90